createdAt,value
2023-04-18T00:01:50.262Z,80.48
2023-04-18T00:04:18.543Z,80.98
2023-04-18T00:06:47.248Z,80.83
2023-04-18T00:09:14.622Z,81.16
2023-04-18T00:11:41.989Z,81.17
2023-04-18T00:14:10.301Z,80.56
2023-04-18T00:16:38.791Z,81.16
2023-04-18T00:19:06.301Z,81.67
2023-04-18T00:21:33.553Z,80.44
2023-04-18T00:24:00.662Z,81.18
2023-04-18T00:26:36.714Z,80.88
2023-04-18T00:29:05.298Z,81.95
2023-04-18T00:31:32.586Z,81.82
2023-04-18T00:33:59.644Z,80.98
2023-04-18T00:36:27.783Z,80.15
2023-04-18T00:38:54.989Z,79.78
2023-04-18T00:41:25.465Z,78.94
2023-04-18T00:43:52.515Z,79.49
2023-04-18T00:46:22.726Z,79.98
2023-04-18T00:48:50.685Z,79.11
2023-04-18T00:51:18.044Z,79.00
2023-04-18T00:53:48.105Z,79.24
2023-04-18T00:56:18.504Z,80.94
2023-04-18T00:58:45.749Z,81.33
2023-04-18T01:01:14.230Z,80.70
2023-04-18T01:03:41.628Z,80.73
2023-04-18T01:06:09.277Z,80.92
2023-04-18T01:08:37.145Z,81.33
2023-04-18T01:11:04.454Z,80.73
2023-04-18T01:13:34.669Z,81.50
2023-04-18T01:16:01.840Z,80.25
2023-04-18T01:18:31.494Z,79.55
2023-04-18T01:21:00.381Z,80.23
2023-04-18T01:23:27.579Z,80.42
2023-04-18T01:25:54.704Z,81.95
2023-04-18T01:28:22.740Z,80.86
2023-04-18T01:30:49.904Z,82.00
2023-04-18T01:33:17.051Z,79.21
2023-04-18T01:35:44.128Z,80.49
2023-04-18T01:38:11.332Z,81.58
2023-04-18T01:40:38.410Z,81.45
2023-04-18T01:43:07.759Z,79.81
2023-04-18T01:45:34.923Z,79.22
2023-04-18T01:48:03.505Z,80.59
2023-04-18T01:50:30.732Z,79.46
2023-04-18T01:52:57.773Z,78.60
2023-04-18T01:55:24.817Z,79.36
2023-04-18T01:57:51.866Z,82.45
2023-04-18T02:00:19.970Z,81.90
2023-04-18T02:02:47.305Z,80.59
2023-04-18T02:05:14.452Z,80.85
2023-04-18T02:07:42.700Z,82.27
2023-04-18T02:10:11.985Z,82.34
2023-04-18T02:12:39.126Z,81.21
2023-04-18T02:15:10.715Z,81.45
2023-04-18T02:17:38.288Z,79.55
2023-04-18T02:20:08.091Z,80.93
2023-04-18T02:22:40.340Z,80.84
2023-04-18T02:25:07.939Z,81.89
2023-04-18T02:27:35.007Z,80.86
2023-04-18T02:30:02.209Z,80.34
2023-04-18T02:32:29.502Z,80.26
2023-04-18T02:34:59.898Z,81.83
2023-04-18T02:37:29.323Z,81.90
2023-04-18T02:39:56.595Z,79.43
2023-04-18T02:42:23.756Z,79.60
2023-04-18T02:44:51.087Z,81.28
2023-04-18T02:47:21.681Z,78.00
2023-04-18T02:49:51.450Z,79.93
2023-04-18T02:52:18.803Z,79.03
2023-04-18T02:54:45.890Z,79.59
2023-04-18T02:57:12.933Z,80.19
2023-04-18T02:59:40.024Z,79.58
2023-04-18T03:02:07.146Z,78.53
2023-04-18T03:04:34.365Z,79.65
2023-04-18T03:07:01.630Z,79.08
2023-04-18T03:09:28.661Z,80.60
2023-04-18T03:11:55.756Z,80.53
2023-04-18T03:14:22.802Z,79.92
2023-04-18T03:16:51.745Z,78.05
2023-04-18T03:19:20.554Z,79.79
2023-04-18T03:21:48.095Z,80.32
2023-04-18T03:24:15.420Z,80.31
2023-04-18T03:26:42.799Z,79.20
2023-04-18T03:29:10.039Z,80.83
2023-04-18T03:31:41.426Z,81.01
2023-04-18T03:34:08.648Z,81.26
2023-04-18T03:36:39.590Z,80.89
2023-04-18T03:39:06.699Z,81.22
2023-04-18T03:41:33.754Z,81.07
2023-04-18T03:44:00.825Z,80.72
2023-04-18T03:46:27.977Z,81.88
2023-04-18T03:48:55.396Z,79.18
2023-04-18T03:51:22.555Z,80.57
2023-04-18T03:53:49.596Z,81.29
2023-04-18T03:56:16.771Z,81.38
2023-04-18T03:58:43.870Z,80.85
2023-04-18T04:01:10.976Z,79.95
2023-04-18T04:03:38.243Z,79.55
2023-04-18T04:06:06.496Z,80.76
2023-04-18T04:08:37.062Z,81.26
2023-04-18T04:11:04.135Z,80.30
2023-04-18T04:13:33.932Z,81.03
2023-04-18T04:16:01.069Z,81.18
2023-04-18T04:18:31.469Z,81.68
2023-04-18T04:21:00.604Z,79.57
2023-04-18T04:23:58.546Z,80.64
2023-04-18T04:26:31.713Z,80.51
2023-04-18T04:28:59.092Z,81.72
2023-04-18T04:31:26.587Z,81.89
2023-04-18T04:34:30.959Z,78.85
2023-04-18T04:37:32.629Z,79.88
2023-04-18T04:43:31.533Z,80.33
2023-04-18T04:45:58.921Z,77.28
2023-04-18T04:49:12.004Z,78.48
2023-04-18T04:51:48.377Z,80.33
2023-04-18T04:54:18.331Z,81.60
2023-04-18T04:56:51.904Z,79.24
2023-04-18T04:59:19.201Z,78.54
2023-04-18T05:01:52.354Z,77.69
2023-04-18T05:04:20.238Z,77.00
2023-04-18T05:06:47.797Z,76.44
2023-04-18T05:09:21.189Z,78.11
2023-04-18T05:11:55.177Z,79.01
2023-04-18T05:14:31.370Z,78.09
2023-04-18T05:17:12.700Z,77.07
2023-04-18T05:22:48.484Z,76.83
2023-04-18T05:25:15.905Z,77.11
2023-04-18T05:27:43.774Z,79.76
2023-04-18T05:30:14.530Z,79.57
2023-04-18T05:32:56.631Z,78.99
2023-04-18T05:35:23.977Z,81.46
2023-04-18T05:38:06.798Z,80.95
2023-04-18T05:40:37.008Z,81.07
2023-04-18T05:43:13.155Z,78.85
2023-04-18T05:45:40.272Z,81.96
2023-04-18T05:48:08.669Z,79.89
2023-04-18T05:50:43.367Z,79.88
2023-04-18T05:53:15.395Z,78.36
2023-04-18T05:56:02.990Z,78.82
2023-04-18T05:58:52.470Z,80.45
2023-04-18T06:01:28.968Z,80.57
2023-04-18T06:03:59.899Z,81.00
2023-04-18T06:06:29.867Z,78.95
2023-04-18T06:08:57.230Z,79.29
2023-04-18T06:11:24.683Z,79.47
2023-04-18T06:13:51.991Z,80.04
2023-04-18T06:16:19.560Z,80.30
2023-04-18T06:18:46.620Z,80.23
2023-04-18T06:21:14.896Z,78.67
2023-04-18T06:23:42.079Z,80.81
2023-04-18T06:26:09.815Z,78.84
2023-04-18T06:28:40.485Z,80.30
2023-04-18T06:31:11.541Z,78.17
2023-04-18T06:33:38.906Z,80.99
2023-04-18T06:36:07.352Z,77.46
2023-04-18T06:38:34.649Z,77.26
2023-04-18T06:41:01.757Z,77.94
2023-04-18T06:43:36.146Z,79.13
2023-04-18T06:46:05.605Z,78.77
2023-04-18T06:48:36.678Z,78.72
2023-04-18T06:51:03.901Z,76.94
2023-04-18T06:53:31.018Z,77.16
2023-04-18T06:55:58.152Z,79.72
2023-04-18T06:58:25.206Z,79.43
2023-04-18T07:00:53.079Z,79.15
2023-04-18T07:03:20.691Z,78.24
2023-04-18T07:05:48.292Z,76.75
2023-04-18T07:08:15.848Z,78.29
2023-04-18T07:10:43.185Z,78.06
2023-04-18T07:13:10.265Z,77.91
2023-04-18T07:15:39.851Z,76.49
2023-04-18T07:18:06.967Z,76.17
2023-04-18T07:20:34.069Z,76.81
2023-04-18T07:23:01.125Z,77.43
2023-04-18T07:25:28.213Z,77.50
2023-04-18T07:27:55.842Z,75.98
2023-04-18T07:30:23.028Z,78.53
2023-04-18T07:32:50.461Z,76.98
2023-04-18T07:35:17.704Z,76.37
2023-04-18T07:37:45.046Z,76.11
2023-04-18T07:40:13.160Z,76.19
2023-04-18T07:42:40.322Z,77.85
2023-04-18T07:45:08.073Z,77.35
2023-04-18T07:47:35.447Z,76.40
2023-04-18T07:50:03.298Z,76.11
2023-04-18T07:52:39.700Z,74.49
2023-04-18T07:55:07.975Z,75.17
2023-04-18T07:57:35.006Z,73.85
2023-04-18T08:00:02.198Z,74.65
2023-04-18T08:02:29.416Z,76.05
2023-04-18T08:04:56.879Z,76.33
2023-04-18T08:07:24.139Z,76.04
2023-04-18T08:09:51.244Z,75.98
2023-04-18T08:12:21.460Z,75.94
2023-04-18T08:14:48.739Z,74.68
2023-04-18T08:17:15.945Z,75.80
2023-04-18T08:19:48.528Z,74.98
2023-04-18T08:22:15.752Z,75.41
2023-04-18T08:24:57.201Z,74.57
2023-04-18T08:27:32.356Z,74.47
2023-04-18T08:30:00.493Z,73.97
2023-04-18T08:32:27.801Z,73.98
2023-04-18T08:34:58.525Z,72.20
2023-04-18T08:37:27.827Z,71.20
2023-04-18T08:39:54.993Z,73.42
2023-04-18T08:42:23.795Z,72.78
2023-04-18T08:44:51.401Z,72.87
2023-04-18T08:47:19.259Z,72.48
2023-04-18T08:49:46.935Z,71.46
2023-04-18T08:52:16.819Z,74.34
2023-04-18T08:54:49.000Z,72.55
2023-04-18T08:57:27.007Z,71.35
2023-04-18T08:59:55.442Z,70.65
2023-04-18T09:02:52.761Z,68.11
2023-04-18T09:05:30.104Z,66.95
2023-04-18T09:07:57.457Z,70.96
2023-04-18T09:10:30.766Z,70.07
2023-04-18T09:13:01.058Z,71.32
2023-04-18T09:15:29.835Z,69.85
2023-04-18T09:18:02.929Z,72.24
2023-04-18T09:20:42.316Z,71.30
2023-04-18T09:23:25.989Z,68.83
2023-04-18T09:25:53.714Z,67.05
2023-04-18T09:28:33.504Z,69.46
2023-04-18T09:31:12.990Z,69.14
2023-04-18T09:33:54.516Z,67.05
2023-04-18T09:36:27.718Z,67.75
2023-04-18T09:38:57.022Z,69.80
2023-04-18T09:41:27.340Z,68.86
2023-04-18T09:44:15.133Z,67.11
2023-04-18T09:46:46.623Z,68.27
2023-04-18T09:49:16.713Z,63.76
2023-04-18T09:51:46.285Z,69.67
2023-04-18T09:54:38.365Z,68.92
2023-04-18T09:57:10.987Z,68.98
2023-04-18T10:00:21.775Z,68.61
2023-04-18T10:03:00.723Z,68.59
2023-04-18T10:05:48.258Z,70.13
2023-04-18T10:08:16.115Z,69.46
2023-04-18T10:10:49.988Z,67.13
2023-04-18T10:13:30.731Z,68.40
2023-04-18T10:16:04.141Z,68.55
2023-04-18T10:18:33.882Z,65.67
2023-04-18T10:21:05.341Z,66.72
2023-04-18T10:23:32.368Z,64.01
2023-04-18T10:26:00.693Z,64.32
2023-04-18T10:28:47.992Z,67.47
2023-04-18T10:31:17.286Z,65.39
2023-04-18T10:34:06.884Z,68.60
2023-04-18T10:36:38.564Z,66.12
2023-04-18T10:39:25.541Z,66.35
2023-04-18T10:41:52.823Z,64.43
2023-04-18T10:44:22.861Z,63.84
2023-04-18T10:46:53.291Z,67.75
2023-04-18T10:49:31.972Z,65.26
2023-04-18T10:52:02.307Z,64.47
2023-04-18T10:55:32.062Z,65.06
2023-04-18T10:57:59.434Z,66.13
2023-04-18T11:00:29.824Z,67.04
2023-04-18T11:02:57.940Z,67.77
2023-04-18T11:05:29.369Z,66.28
2023-04-18T11:07:56.438Z,66.63
2023-04-18T11:10:27.587Z,64.25
2023-04-18T11:12:59.488Z,62.85
2023-04-18T11:15:27.530Z,66.53
2023-04-18T11:17:59.842Z,66.73
2023-04-18T11:20:27.607Z,67.54
2023-04-18T11:22:58.662Z,65.20
2023-04-18T11:25:40.493Z,64.94
2023-04-18T11:28:09.514Z,62.46
2023-04-18T11:30:44.430Z,66.40
2023-04-18T11:33:15.866Z,65.12
2023-04-18T11:35:47.340Z,64.71
2023-04-18T11:38:16.158Z,63.26
2023-04-18T11:40:52.844Z,64.71
2023-04-18T11:43:25.807Z,67.69
2023-04-18T11:46:00.274Z,65.10
2023-04-18T11:48:42.935Z,64.88
2023-04-18T11:51:38.617Z,65.73
2023-04-18T11:54:06.561Z,67.33
2023-04-18T11:56:36.076Z,67.71
2023-04-18T11:59:10.636Z,64.78
2023-04-18T12:01:37.733Z,66.31
2023-04-18T12:04:09.552Z,65.06
2023-04-18T12:06:51.708Z,67.20
2023-04-18T12:09:24.322Z,66.89
2023-04-18T12:12:04.374Z,65.13
2023-04-18T12:14:35.745Z,64.36
2023-04-18T12:17:04.195Z,66.17
2023-04-18T12:19:32.598Z,64.22
2023-04-18T12:22:49.514Z,65.47
2023-04-18T12:25:27.781Z,65.05
2023-04-18T12:28:08.217Z,65.03
2023-04-18T12:30:38.040Z,64.93
2023-04-18T12:33:05.566Z,64.98
2023-04-18T12:36:08.670Z,64.28
2023-04-18T12:38:36.139Z,64.55
2023-04-18T12:41:09.334Z,63.02
2023-04-18T12:43:39.413Z,61.99
2023-04-18T12:46:30.099Z,61.19
2023-04-18T12:48:58.813Z,63.94
2023-04-18T12:51:40.667Z,63.82
2023-04-18T12:54:09.809Z,59.46
2023-04-18T12:56:36.882Z,63.09
2023-04-18T12:59:03.957Z,61.38
2023-04-18T13:01:31.513Z,63.99
2023-04-18T13:04:10.749Z,63.10
2023-04-18T13:06:40.095Z,62.57
2023-04-18T13:09:08.567Z,63.32
2023-04-18T13:11:38.680Z,62.71
2023-04-18T13:14:06.021Z,62.42
2023-04-18T13:16:33.158Z,62.28
2023-04-18T13:19:01.518Z,59.77
2023-04-18T13:21:28.628Z,60.07
2023-04-18T13:23:55.792Z,62.86
2023-04-18T13:26:23.364Z,62.37
2023-04-18T13:28:50.626Z,62.44
2023-04-18T13:31:17.766Z,60.79
2023-04-18T13:33:47.143Z,63.55
2023-04-18T13:36:14.216Z,60.76
2023-04-18T13:38:41.697Z,61.79
2023-04-18T13:41:13.194Z,61.89
2023-04-18T13:43:40.573Z,60.17
2023-04-18T13:46:12.860Z,58.07
2023-04-18T13:48:40.504Z,60.20
2023-04-18T13:51:10.186Z,59.79
2023-04-18T13:53:40.451Z,60.76
2023-04-18T13:56:18.363Z,58.97
2023-04-18T13:58:48.886Z,59.70
2023-04-18T14:01:24.301Z,58.63
2023-04-18T14:03:57.062Z,59.53
2023-04-18T14:06:24.315Z,60.56
2023-04-18T14:08:51.371Z,59.03
2023-04-18T14:11:23.852Z,60.31
2023-04-18T14:14:03.044Z,58.49
2023-04-18T14:16:41.102Z,60.31
2023-04-18T14:19:08.242Z,59.17
2023-04-18T14:21:39.503Z,60.64
2023-04-18T14:24:08.474Z,58.77
2023-04-18T14:26:35.604Z,59.60
2023-04-18T14:29:05.677Z,59.30
2023-04-18T14:31:32.829Z,58.31
2023-04-18T14:33:59.950Z,58.48
2023-04-18T14:36:27.562Z,59.96
2023-04-18T14:38:55.286Z,59.03
2023-04-18T14:41:29.829Z,57.25
2023-04-18T14:43:57.012Z,59.05
2023-04-18T14:46:24.174Z,58.15
2023-04-18T14:48:52.597Z,56.59
2023-04-18T14:51:19.706Z,60.01
2023-04-18T14:54:00.116Z,56.50
2023-04-18T14:56:27.476Z,57.65
2023-04-18T14:58:54.525Z,58.82
2023-04-18T15:01:21.709Z,59.53
2023-04-18T15:03:51.368Z,58.67
2023-04-18T15:06:18.634Z,58.60
2023-04-18T15:08:46.354Z,57.56
2023-04-18T15:11:13.827Z,57.44
2023-04-18T15:13:41.003Z,58.78
2023-04-18T15:16:14.372Z,54.86
2023-04-18T15:18:41.572Z,55.43
2023-04-18T15:21:08.872Z,56.35
2023-04-18T15:23:36.144Z,55.61
2023-04-18T15:26:03.385Z,56.31
2023-04-18T15:28:32.168Z,55.46
2023-04-18T15:30:59.707Z,56.57
2023-04-18T15:33:26.812Z,54.85
2023-04-18T15:35:55.727Z,55.98
2023-04-18T15:38:26.055Z,55.84
2023-04-18T15:40:53.217Z,54.19
2023-04-18T15:43:20.785Z,55.97
2023-04-18T15:45:48.939Z,55.57
2023-04-18T15:48:16.640Z,54.48
2023-04-18T15:50:54.331Z,54.64
2023-04-18T15:53:21.513Z,54.87
2023-04-18T15:55:48.688Z,53.69
2023-04-18T15:58:15.858Z,55.00
2023-04-18T16:00:44.484Z,54.43
2023-04-18T16:03:12.199Z,54.24
2023-04-18T16:05:39.700Z,55.89
2023-04-18T16:08:08.825Z,54.46
2023-04-18T16:10:37.680Z,54.70
2023-04-18T16:13:06.592Z,54.80
2023-04-18T16:15:43.716Z,55.00
2023-04-18T16:18:11.249Z,55.60
2023-04-18T16:20:38.376Z,55.31
2023-04-18T16:23:05.589Z,53.97
2023-04-18T16:25:32.964Z,55.20
2023-04-18T16:28:00.036Z,56.04
2023-04-18T16:30:27.189Z,54.70
2023-04-18T16:32:54.479Z,55.07
2023-04-18T16:35:24.812Z,55.60
2023-04-18T16:37:51.924Z,55.29
2023-04-18T16:40:19.040Z,54.28
2023-04-18T16:42:46.890Z,54.94
2023-04-18T16:45:14.154Z,54.65
2023-04-18T16:47:44.351Z,55.72
2023-04-18T16:50:14.110Z,55.57
2023-04-18T16:52:41.317Z,55.45
2023-04-18T16:55:14.549Z,57.13
2023-04-18T16:57:44.276Z,56.88
2023-04-18T17:00:13.500Z,57.22
2023-04-18T17:02:44.465Z,57.49
2023-04-18T17:05:12.103Z,55.94
2023-04-18T17:07:41.262Z,57.56
2023-04-18T17:10:10.371Z,56.13
2023-04-18T17:12:40.899Z,58.70
2023-04-18T17:15:08.397Z,58.35
2023-04-18T17:17:35.758Z,58.30
2023-04-18T17:20:06.009Z,57.26
2023-04-18T17:22:33.058Z,58.39
2023-04-18T17:25:01.660Z,58.58
2023-04-18T17:27:29.815Z,59.39
2023-04-18T17:29:57.050Z,59.66
2023-04-18T17:32:24.241Z,59.77
2023-04-18T17:34:52.930Z,58.61
2023-04-18T17:37:22.561Z,58.83
2023-04-18T17:39:50.353Z,59.68
2023-04-18T17:42:19.498Z,60.46
2023-04-18T17:44:46.599Z,60.72
2023-04-18T17:47:13.911Z,60.11
2023-04-18T17:49:41.053Z,60.06
2023-04-18T17:52:08.111Z,59.56
2023-04-18T17:54:37.629Z,60.44
2023-04-18T17:57:04.747Z,60.21
2023-04-18T17:59:37.535Z,61.07
2023-04-18T18:02:05.864Z,59.44
2023-04-18T18:04:33.143Z,60.27
2023-04-18T18:07:01.043Z,58.27
2023-04-18T18:09:28.099Z,58.12
2023-04-18T18:11:56.026Z,58.72
2023-04-18T18:14:23.523Z,59.47
2023-04-18T18:16:50.846Z,59.13
2023-04-18T18:19:18.847Z,59.58
2023-04-18T18:21:47.255Z,61.26
2023-04-18T18:24:14.408Z,59.74
2023-04-18T18:26:41.728Z,61.43
2023-04-18T18:29:09.824Z,59.58
2023-04-18T18:31:37.446Z,60.24
2023-04-18T18:34:05.782Z,60.22
2023-04-18T18:36:32.926Z,60.35
2023-04-18T18:39:00.052Z,59.75
2023-04-18T18:41:27.204Z,59.70
2023-04-18T18:43:54.466Z,59.86
2023-04-18T18:46:21.602Z,60.24
2023-04-18T18:48:51.884Z,59.39
2023-04-18T18:51:23.650Z,59.10
2023-04-18T18:53:57.970Z,58.65
2023-04-18T18:56:28.009Z,59.73
2023-04-18T18:58:57.944Z,58.37
2023-04-18T19:01:30.125Z,58.83
2023-04-18T19:03:57.370Z,58.93
2023-04-18T19:06:24.606Z,59.48
2023-04-18T19:08:51.655Z,59.01
2023-04-18T19:11:19.535Z,59.17
2023-04-18T19:13:46.761Z,58.91
2023-04-18T19:16:13.957Z,59.85
2023-04-18T19:18:43.488Z,59.40
2023-04-18T19:21:11.128Z,58.73
2023-04-18T19:23:38.189Z,59.48
2023-04-18T19:26:05.245Z,60.11
2023-04-18T19:28:32.313Z,60.71
2023-04-18T19:30:59.482Z,61.27
2023-04-18T19:33:27.460Z,61.95
2023-04-18T19:35:54.784Z,61.87
2023-04-18T19:38:21.993Z,61.97
2023-04-18T19:40:49.051Z,62.17
2023-04-18T19:43:16.182Z,62.60
2023-04-18T19:45:43.240Z,63.19
2023-04-18T19:48:10.441Z,63.08
2023-04-18T19:50:40.502Z,64.06
2023-04-18T19:53:08.030Z,65.19
2023-04-18T19:55:35.376Z,63.23
2023-04-18T19:58:02.496Z,64.55
2023-04-18T20:00:29.834Z,65.02
2023-04-18T20:02:58.626Z,65.92
2023-04-18T20:05:25.895Z,63.22
2023-04-18T20:07:53.004Z,64.95
2023-04-18T20:10:23.587Z,65.33
2023-04-18T20:12:50.974Z,67.50
2023-04-18T20:15:18.125Z,65.87
2023-04-18T20:17:45.356Z,67.09
2023-04-18T20:20:13.026Z,64.47
2023-04-18T20:22:41.738Z,65.43
2023-04-18T20:25:09.104Z,65.48
2023-04-18T20:27:36.135Z,66.55
2023-04-18T20:30:03.399Z,66.11
2023-04-18T20:32:30.903Z,65.07
2023-04-18T20:34:58.542Z,67.51
2023-04-18T20:37:27.595Z,63.02
2023-04-18T20:39:55.717Z,65.79
2023-04-18T20:42:23.554Z,67.63
2023-04-18T20:44:51.352Z,66.83
2023-04-18T20:47:18.400Z,65.92
2023-04-18T20:49:45.624Z,68.34
2023-04-18T20:52:14.224Z,67.14
2023-04-18T20:54:44.486Z,68.62
2023-04-18T20:57:11.547Z,68.08
2023-04-18T20:59:38.620Z,70.03
2023-04-18T21:02:07.976Z,68.64
2023-04-18T21:04:35.263Z,70.41
2023-04-18T21:07:02.338Z,70.49
2023-04-18T21:09:30.923Z,72.21
2023-04-18T21:11:58.445Z,71.03
2023-04-18T21:14:25.602Z,72.29
2023-04-18T21:16:52.658Z,72.29
2023-04-18T21:19:19.728Z,71.95
2023-04-18T21:21:46.807Z,73.70
2023-04-18T21:24:14.148Z,72.57
2023-04-18T21:26:41.518Z,73.24
2023-04-18T21:29:08.588Z,71.35
2023-04-18T21:31:36.030Z,72.65
2023-04-18T21:34:09.226Z,72.24
2023-04-18T21:36:36.396Z,73.72
2023-04-18T21:39:03.979Z,72.28
2023-04-18T21:41:31.353Z,72.31
2023-04-18T21:43:58.436Z,70.92
2023-04-18T21:46:25.560Z,73.41
2023-04-18T21:48:52.635Z,71.92
2023-04-18T21:51:19.738Z,72.12
2023-04-18T21:53:47.008Z,71.04
2023-04-18T21:56:14.316Z,71.29
2023-04-18T21:58:41.413Z,70.08
2023-04-18T22:01:08.595Z,69.35
2023-04-18T22:03:36.957Z,69.80
2023-04-18T22:06:04.686Z,69.67
2023-04-18T22:08:31.736Z,68.90
2023-04-18T22:11:00.192Z,68.37
2023-04-18T22:13:30.063Z,67.63
2023-04-18T22:15:58.163Z,68.82
2023-04-18T22:18:25.504Z,67.37
2023-04-18T22:20:53.800Z,67.67
2023-04-18T22:23:21.015Z,67.48
2023-04-18T22:25:48.615Z,69.00
2023-04-18T22:28:15.931Z,69.22
2023-04-18T22:30:43.011Z,67.91
2023-04-18T22:33:10.240Z,69.12
2023-04-18T22:35:37.367Z,69.11
2023-04-18T22:38:04.531Z,68.32
2023-04-18T22:40:31.592Z,68.34
2023-04-18T22:42:58.618Z,68.75
2023-04-18T22:45:25.658Z,68.93
2023-04-18T22:47:52.759Z,69.40
2023-04-18T22:50:20.023Z,66.99
2023-04-18T22:52:47.086Z,67.24
2023-04-18T22:55:16.410Z,67.08
2023-04-18T22:57:43.506Z,65.74
2023-04-18T23:00:11.922Z,66.28
2023-04-18T23:02:39.156Z,66.48
2023-04-18T23:05:07.966Z,66.66
2023-04-18T23:07:35.070Z,65.91
2023-04-18T23:10:06.542Z,65.25
2023-04-18T23:12:33.713Z,65.17
2023-04-18T23:15:00.990Z,64.04
2023-04-18T23:17:28.081Z,64.41
2023-04-18T23:19:55.262Z,63.43
2023-04-18T23:22:25.600Z,64.33
2023-04-18T23:24:52.697Z,64.54
2023-04-18T23:27:20.081Z,63.55
2023-04-18T23:29:48.720Z,64.04
2023-04-18T23:32:16.248Z,64.26
2023-04-18T23:34:44.746Z,63.52
2023-04-18T23:37:11.811Z,63.98
2023-04-18T23:39:38.902Z,62.88
2023-04-18T23:42:05.989Z,62.63
2023-04-18T23:44:33.107Z,62.26
2023-04-18T23:47:00.190Z,62.54
2023-04-18T23:49:28.336Z,61.72
2023-04-18T23:51:55.396Z,62.04
2023-04-18T23:54:22.490Z,60.97
2023-04-18T23:56:49.693Z,60.31
2023-04-18T23:59:16.751Z,61.62
